Backoo, North Dakota
Current Conditions -  °F | °C
As of 3:35 AM on Monday 24 Nov 2014 (Local Time) from K2C8 Reporting Station
Light Snow Light Snow  
Wind Chill: -12°   Ceiling: 1800
Heat Index:   Visibility: 5mi
Dew Point:   Wind: 23mph
Humidity: 85%   Direction: 340°NNW
Pressure: 29.69"   Gusts: 37mph
Location:  48.8218°N, 97.697°W
Report Text: K2C8 240935Z AUTO 34020G32KT 5SM -SN FEW011 OVC018 M13/M15 A2969 RMK AO2
Loading
Personal Weather Stations






























Interactive Weather Map New forecast layout! Learn more

10-Day Weather Forecast

Advertisements
Track Severe Weather on mobile